createdAt,value
2023-03-26T00:01:21.409Z,18.23
2023-03-26T00:03:53.660Z,18.88
2023-03-26T00:06:23.154Z,19.05
2023-03-26T00:08:51.203Z,19.65
2023-03-26T00:11:20.294Z,19.27
2023-03-26T00:13:47.812Z,19.27
2023-03-26T00:16:18.174Z,19.80
2023-03-26T00:18:45.644Z,19.95
2023-03-26T00:21:15.255Z,20.27
2023-03-26T00:23:43.154Z,20.77
2023-03-26T00:26:11.282Z,21.27
2023-03-26T00:28:40.619Z,21.40
2023-03-26T00:31:12.949Z,21.95
2023-03-26T00:33:41.531Z,21.80
2023-03-26T00:36:16.809Z,21.02
2023-03-26T00:38:44.875Z,21.65
2023-03-26T00:41:34.081Z,21.40
2023-03-26T00:44:01.207Z,21.65
2023-03-26T00:46:30.697Z,21.02
2023-03-26T00:48:59.091Z,21.10
2023-03-26T00:51:27.333Z,20.85
2023-03-26T00:53:54.722Z,21.27
2023-03-26T00:56:21.715Z,21.08
2023-03-26T00:58:50.382Z,20.70
2023-03-26T01:01:28.465Z,20.92
2023-03-26T01:04:08.840Z,21.00
2023-03-26T01:06:42.283Z,21.83
2023-03-26T01:09:19.096Z,21.05
2023-03-26T01:11:47.077Z,20.75
2023-03-26T01:14:18.398Z,20.90
2023-03-26T01:16:50.133Z,20.75
2023-03-26T01:19:47.589Z,21.17
2023-03-26T01:22:19.000Z,21.13
2023-03-26T01:24:53.199Z,21.63
2023-03-26T01:27:59.229Z,21.30
2023-03-26T01:30:38.732Z,21.45
2023-03-26T01:33:26.442Z,21.15
2023-03-26T01:36:01.554Z,21.08
2023-03-26T01:38:46.834Z,22.13
2023-03-26T01:41:48.440Z,21.17
2023-03-26T01:44:27.928Z,21.65
2023-03-26T01:46:55.749Z,21.67
2023-03-26T01:49:22.880Z,20.80
2023-03-26T01:51:51.474Z,21.42
2023-03-26T01:54:22.167Z,21.17
2023-03-26T01:57:15.960Z,21.25
2023-03-26T02:00:07.167Z,21.23
2023-03-26T02:02:34.144Z,20.85
2023-03-26T02:05:28.696Z,21.77
2023-03-26T02:08:11.982Z,21.73
2023-03-26T02:10:45.504Z,21.77
2023-03-26T02:13:13.493Z,21.75
2023-03-26T02:15:41.572Z,21.80
2023-03-26T02:18:10.994Z,21.92
2023-03-26T02:20:38.285Z,22.10
2023-03-26T02:23:05.873Z,22.00
2023-03-26T02:25:35.313Z,21.50
2023-03-26T02:28:02.268Z,22.45
2023-03-26T02:30:29.851Z,22.50
2023-03-26T02:32:59.542Z,23.35
2023-03-26T02:35:26.820Z,23.50
2023-03-26T02:37:53.803Z,22.58
2023-03-26T02:40:22.514Z,23.65
2023-03-26T02:42:50.043Z,23.27
2023-03-26T02:45:17.122Z,22.08
2023-03-26T02:47:46.212Z,23.15
2023-03-26T02:50:13.249Z,24.80
2023-03-26T02:52:40.252Z,23.08
2023-03-26T02:55:07.610Z,23.40
2023-03-26T02:57:34.778Z,22.60
2023-03-26T03:00:14.206Z,22.73
2023-03-26T03:02:41.400Z,22.95
2023-03-26T03:05:08.912Z,22.33
2023-03-26T03:07:38.672Z,23.30
2023-03-26T03:10:08.729Z,23.45
2023-03-26T03:12:36.907Z,23.17
2023-03-26T03:15:04.358Z,24.75
2023-03-26T03:17:31.282Z,23.25
2023-03-26T03:19:58.350Z,24.05
2023-03-26T03:22:25.402Z,27.45
2023-03-26T03:24:52.398Z,27.20
2023-03-26T03:27:21.486Z,23.92
2023-03-26T03:29:48.453Z,27.67
2023-03-26T03:32:15.522Z,23.60
2023-03-26T03:34:42.588Z,23.85
2023-03-26T03:37:09.531Z,28.38
2023-03-26T03:39:36.483Z,22.90
2023-03-26T03:42:03.917Z,26.65
2023-03-26T03:44:30.864Z,24.15
2023-03-26T03:46:57.898Z,27.23
2023-03-26T03:49:24.870Z,24.08
2023-03-26T03:51:51.904Z,24.38
2023-03-26T03:54:18.968Z,23.45
2023-03-26T03:56:47.404Z,27.83
2023-03-26T03:59:15.565Z,29.58
2023-03-26T04:01:43.304Z,27.35
2023-03-26T04:04:10.797Z,28.95
2023-03-26T04:06:37.775Z,30.15
2023-03-26T04:09:05.434Z,28.70
2023-03-26T04:11:32.443Z,30.42
2023-03-26T04:13:59.536Z,27.00
2023-03-26T04:16:26.571Z,26.48
2023-03-26T04:18:53.592Z,24.63
2023-03-26T04:21:21.282Z,24.15
2023-03-26T04:23:48.286Z,24.60
2023-03-26T04:26:21.472Z,25.50
2023-03-26T04:28:55.341Z,24.77
2023-03-26T04:31:29.146Z,28.00
2023-03-26T04:34:26.380Z,24.83
2023-03-26T04:36:56.385Z,26.30
2023-03-26T04:39:23.418Z,24.05
2023-03-26T04:41:50.349Z,27.02
2023-03-26T04:44:22.481Z,26.42
2023-03-26T04:46:50.466Z,29.08
2023-03-26T04:49:17.420Z,24.13
2023-03-26T04:51:46.807Z,26.45
2023-03-26T04:54:16.398Z,23.73
2023-03-26T04:56:57.672Z,24.38
2023-03-26T04:59:30.567Z,23.48
2023-03-26T05:01:59.981Z,25.45
2023-03-26T05:04:29.604Z,24.05
2023-03-26T05:06:58.512Z,27.90
2023-03-26T05:09:26.476Z,22.83
2023-03-26T05:11:53.650Z,23.38
2023-03-26T05:14:21.080Z,23.38
2023-03-26T05:16:50.485Z,22.98
2023-03-26T05:19:17.565Z,24.23
2023-03-26T05:21:44.581Z,23.77
2023-03-26T05:24:11.577Z,25.13
2023-03-26T05:26:38.640Z,25.48
2023-03-26T05:29:05.856Z,23.58
2023-03-26T05:31:32.984Z,25.13
2023-03-26T05:34:00.708Z,24.70
2023-03-26T05:36:30.463Z,24.27
2023-03-26T05:38:57.499Z,23.95
2023-03-26T05:41:24.432Z,24.85
2023-03-26T05:43:51.485Z,25.50
2023-03-26T05:46:20.497Z,24.92
2023-03-26T05:48:47.769Z,26.25
2023-03-26T05:51:15.765Z,24.42
2023-03-26T05:53:43.214Z,24.50
2023-03-26T05:56:10.783Z,24.85
2023-03-26T05:58:38.370Z,23.58
2023-03-26T06:01:05.868Z,27.58
2023-03-26T06:03:34.937Z,23.65
2023-03-26T06:06:04.037Z,23.10
2023-03-26T06:08:31.386Z,25.02
2023-03-26T06:11:00.542Z,23.55
2023-03-26T06:13:27.612Z,27.48
2023-03-26T06:15:54.790Z,26.08
2023-03-26T06:18:23.117Z,25.30
2023-03-26T06:20:51.249Z,28.10
2023-03-26T06:23:19.171Z,22.13
2023-03-26T06:25:46.257Z,27.52
2023-03-26T06:28:13.449Z,24.15
2023-03-26T06:30:40.449Z,26.98
2023-03-26T06:33:07.812Z,24.00
2023-03-26T06:35:35.045Z,29.95
2023-03-26T06:38:02.306Z,33.25
2023-03-26T06:40:29.434Z,54.88
2023-03-26T06:43:09.521Z,43.75
2023-03-26T06:45:38.245Z,66.57
2023-03-26T06:48:05.666Z,42.05
2023-03-26T06:50:33.159Z,26.38
2023-03-26T06:53:00.450Z,25.08
2023-03-26T06:55:27.884Z,24.60
2023-03-26T06:57:56.051Z,36.88
2023-03-26T07:00:23.119Z,25.60
2023-03-26T07:02:50.386Z,29.83
2023-03-26T07:05:17.487Z,31.83
2023-03-26T07:07:46.541Z,27.77
2023-03-26T07:10:14.773Z,27.50
2023-03-26T07:12:42.580Z,26.05
2023-03-26T07:15:10.506Z,27.90
2023-03-26T07:17:37.749Z,24.92
2023-03-26T07:20:07.335Z,34.67
2023-03-26T07:22:35.655Z,21.65
2023-03-26T07:25:03.440Z,25.35
2023-03-26T07:27:51.896Z,21.40
2023-03-26T07:30:30.768Z,21.77
2023-03-26T07:33:27.232Z,22.83
2023-03-26T07:36:09.449Z,24.30
2023-03-26T07:38:51.757Z,24.70
2023-03-26T07:41:44.254Z,24.25
2023-03-26T07:44:48.232Z,33.42
2023-03-26T07:47:32.646Z,38.53
2023-03-26T07:50:00.388Z,34.05
2023-03-26T07:52:28.410Z,37.08
2023-03-26T07:54:56.319Z,30.63
2023-03-26T07:57:35.127Z,24.70
2023-03-26T08:00:15.300Z,24.48
2023-03-26T08:03:03.737Z,22.35
2023-03-26T08:05:39.086Z,24.40
2023-03-26T08:08:27.794Z,25.58
2023-03-26T08:11:15.190Z,22.60
2023-03-26T08:14:08.886Z,29.45
2023-03-26T08:16:56.490Z,28.20
2023-03-26T08:19:38.786Z,28.83
2023-03-26T08:22:50.835Z,25.33
2023-03-26T08:25:25.769Z,20.90
2023-03-26T08:28:01.734Z,20.17
2023-03-26T08:30:29.102Z,25.58
2023-03-26T08:32:59.328Z,33.70
2023-03-26T08:35:27.912Z,29.50
2023-03-26T08:37:54.854Z,29.90
2023-03-26T08:40:55.523Z,29.23
2023-03-26T08:43:25.604Z,21.05
2023-03-26T08:46:04.873Z,24.85
2023-03-26T08:48:59.422Z,22.98
2023-03-26T08:52:02.826Z,22.92
2023-03-26T08:54:38.859Z,22.88
2023-03-26T08:57:42.809Z,23.30
2023-03-26T09:00:34.881Z,22.95
2023-03-26T09:03:04.612Z,19.67
2023-03-26T09:05:59.712Z,22.08
2023-03-26T09:08:54.756Z,25.40
2023-03-26T09:11:53.742Z,23.63
2023-03-26T09:14:45.519Z,28.83
2023-03-26T09:17:41.665Z,30.27
2023-03-26T09:20:41.555Z,27.95
2023-03-26T09:23:26.621Z,29.27
2023-03-26T09:26:23.942Z,28.52
2023-03-26T09:29:02.139Z,27.23
2023-03-26T09:32:03.432Z,28.60
2023-03-26T09:34:42.351Z,28.80
2023-03-26T09:37:33.380Z,28.45
2023-03-26T09:40:16.420Z,27.63
2023-03-26T09:43:09.168Z,29.70
2023-03-26T09:46:12.803Z,30.83
2023-03-26T09:48:48.642Z,27.58
2023-03-26T09:51:33.376Z,30.58
2023-03-26T09:54:25.809Z,30.52
2023-03-26T09:56:58.809Z,28.85
2023-03-26T09:59:56.681Z,27.60
2023-03-26T10:02:23.624Z,27.00
2023-03-26T10:05:35.265Z,28.20
2023-03-26T10:08:20.538Z,25.02
2023-03-26T10:11:03.278Z,25.77
2023-03-26T10:13:51.235Z,26.75
2023-03-26T10:16:24.162Z,25.23
2023-03-26T10:18:57.104Z,27.38
2023-03-26T10:21:36.087Z,28.58
2023-03-26T10:24:36.576Z,27.35
2023-03-26T10:27:22.547Z,29.40
2023-03-26T10:29:51.140Z,33.08
2023-03-26T10:32:30.834Z,29.30
2023-03-26T10:35:21.902Z,25.77
2023-03-26T10:38:16.342Z,29.27
2023-03-26T10:41:12.090Z,29.77
2023-03-26T10:44:30.595Z,31.30
2023-03-26T10:47:16.126Z,27.70
2023-03-26T10:49:52.366Z,27.30
2023-03-26T10:52:27.417Z,25.63
2023-03-26T10:54:58.173Z,25.73
2023-03-26T10:57:34.519Z,24.58
2023-03-26T11:00:15.258Z,24.52
2023-03-26T11:03:05.015Z,23.50
2023-03-26T11:05:43.833Z,22.85
2023-03-26T11:08:44.146Z,22.80
2023-03-26T11:11:22.976Z,21.95
2023-03-26T11:14:07.274Z,23.38
2023-03-26T11:16:52.110Z,22.52
2023-03-26T11:19:59.355Z,22.15
2023-03-26T11:22:50.355Z,20.85
2023-03-26T11:25:46.931Z,18.98
2023-03-26T11:28:39.491Z,19.30
2023-03-26T11:31:25.562Z,18.80
2023-03-26T11:33:57.081Z,19.52
2023-03-26T11:36:30.578Z,19.67
2023-03-26T11:38:59.672Z,21.40
2023-03-26T11:41:28.624Z,19.65
2023-03-26T11:44:05.526Z,20.30
2023-03-26T11:46:35.518Z,19.90
2023-03-26T11:49:09.317Z,19.20
2023-03-26T11:51:38.388Z,20.55
2023-03-26T11:54:08.052Z,20.85
2023-03-26T11:56:35.113Z,19.67
2023-03-26T11:59:15.400Z,18.73
2023-03-26T12:01:44.163Z,20.15
2023-03-26T12:04:15.883Z,19.98
2023-03-26T12:06:57.812Z,20.17
2023-03-26T12:09:25.018Z,19.40
2023-03-26T12:11:57.159Z,19.67
2023-03-26T12:14:28.363Z,17.30
2023-03-26T12:17:05.894Z,20.05
2023-03-26T12:19:39.914Z,17.63
2023-03-26T12:22:26.281Z,16.75
2023-03-26T12:25:21.361Z,16.92
2023-03-26T12:28:24.914Z,17.60
2023-03-26T12:31:05.704Z,17.88
2023-03-26T12:33:35.021Z,17.90
2023-03-26T12:36:30.489Z,18.15
2023-03-26T12:39:16.024Z,18.15
2023-03-26T12:43:51.506Z,17.90
2023-03-26T12:44:54.974Z,18.98
2023-03-26T12:47:57.824Z,16.80
2023-03-26T12:50:34.637Z,17.48
2023-03-26T12:53:15.007Z,18.45
2023-03-26T12:56:19.922Z,17.55
2023-03-26T12:59:01.444Z,18.10
2023-03-26T13:01:43.589Z,17.23
2023-03-26T13:04:58.664Z,15.60
2023-03-26T13:07:42.072Z,15.65
2023-03-26T13:10:28.077Z,15.88
2023-03-26T13:13:24.431Z,15.65
2023-03-26T13:15:53.870Z,16.92
2023-03-26T13:18:43.893Z,18.15
2023-03-26T13:21:57.208Z,17.23
2023-03-26T13:24:27.215Z,16.17
2023-03-26T13:27:02.949Z,16.88
2023-03-26T13:30:01.074Z,16.58
2023-03-26T13:32:58.850Z,15.95
2023-03-26T13:35:35.142Z,16.70
2023-03-26T13:38:31.298Z,16.10
2023-03-26T13:41:22.438Z,16.38
2023-03-26T13:43:52.387Z,15.90
2023-03-26T13:46:33.712Z,16.20
2023-03-26T13:49:10.594Z,16.02
2023-03-26T13:52:04.384Z,15.60
2023-03-26T13:54:40.992Z,16.05
2023-03-26T13:57:24.298Z,14.55
2023-03-26T14:00:02.004Z,14.43
2023-03-26T14:02:39.194Z,14.50
2023-03-26T14:05:09.545Z,14.95
2023-03-26T14:08:19.484Z,14.27
2023-03-26T14:10:56.959Z,13.77
2023-03-26T14:13:27.013Z,14.70
2023-03-26T14:16:03.447Z,14.50
2023-03-26T14:18:52.530Z,14.40
2023-03-26T14:21:34.734Z,15.20
2023-03-26T14:24:35.872Z,14.68
2023-03-26T14:27:08.781Z,14.80
2023-03-26T14:30:12.404Z,15.02
2023-03-26T14:32:45.044Z,15.00
2023-03-26T14:35:45.893Z,14.98
2023-03-26T14:38:33.767Z,15.07
2023-03-26T14:41:26.890Z,15.70
2023-03-26T14:44:28.482Z,15.30
2023-03-26T14:47:15.803Z,14.50
2023-03-26T14:50:08.761Z,15.65
2023-03-26T14:53:01.461Z,15.60
2023-03-26T14:56:07.173Z,15.40
2023-03-26T14:59:06.984Z,15.48
2023-03-26T15:02:07.952Z,15.13
2023-03-26T15:04:59.542Z,14.85
2023-03-26T15:07:30.303Z,14.82
2023-03-26T15:10:22.768Z,15.25
2023-03-26T15:12:52.638Z,15.02
2023-03-26T15:15:22.461Z,14.88
2023-03-26T15:18:17.490Z,15.50
2023-03-26T15:21:11.549Z,16.85
2023-03-26T15:23:38.429Z,16.83
2023-03-26T15:26:24.274Z,16.38
2023-03-26T15:29:01.113Z,16.35
2023-03-26T15:31:38.798Z,16.13
2023-03-26T15:34:21.441Z,16.00
2023-03-26T15:37:10.832Z,15.38
2023-03-26T15:40:08.541Z,15.80
2023-03-26T15:42:51.690Z,15.70
2023-03-26T15:45:47.532Z,15.68
2023-03-26T15:48:25.967Z,16.90
2023-03-26T15:51:47.277Z,15.75
2023-03-26T15:54:35.752Z,16.02
2023-03-26T15:57:19.554Z,15.80
2023-03-26T16:00:19.347Z,16.50
2023-03-26T16:03:11.406Z,17.15
2023-03-26T16:05:53.979Z,15.98
2023-03-26T16:08:47.363Z,16.13
2023-03-26T16:11:15.601Z,15.68
2023-03-26T16:14:12.710Z,15.50
2023-03-26T16:16:48.862Z,15.45
2023-03-26T16:19:21.967Z,15.25
2023-03-26T16:22:07.686Z,15.38
2023-03-26T16:24:38.309Z,15.40
2023-03-26T16:27:14.260Z,15.70
2023-03-26T16:30:12.046Z,15.20
2023-03-26T16:32:46.859Z,15.55
2023-03-26T16:35:13.909Z,15.35
2023-03-26T16:37:50.134Z,15.23
2023-03-26T16:40:17.384Z,15.90
2023-03-26T16:43:22.111Z,16.63
2023-03-26T16:45:58.716Z,17.30
2023-03-26T16:48:25.633Z,16.35
2023-03-26T16:51:18.839Z,16.67
2023-03-26T16:53:52.293Z,16.70
2023-03-26T16:56:36.069Z,17.30
2023-03-26T16:59:28.507Z,16.10
2023-03-26T17:02:20.021Z,17.55
2023-03-26T17:04:51.694Z,15.48
2023-03-26T17:07:44.964Z,16.20
2023-03-26T17:10:14.688Z,16.40
2023-03-26T17:12:45.252Z,25.40
2023-03-26T17:15:21.091Z,15.75
2023-03-26T17:18:14.492Z,17.77
2023-03-26T17:20:55.972Z,15.18
2023-03-26T17:23:29.143Z,16.08
2023-03-26T17:26:24.119Z,15.40
2023-03-26T17:29:18.610Z,15.80
2023-03-26T17:32:01.419Z,16.25
2023-03-26T17:34:51.568Z,17.25
2023-03-26T17:37:21.529Z,17.30
2023-03-26T17:40:30.826Z,17.08
2023-03-26T17:43:04.487Z,17.13
2023-03-26T17:45:35.336Z,17.50
2023-03-26T17:48:10.455Z,18.08
2023-03-26T17:50:50.704Z,17.45
2023-03-26T17:53:28.558Z,18.13
2023-03-26T17:55:59.075Z,17.50
2023-03-26T17:58:42.728Z,17.30
2023-03-26T18:01:27.226Z,17.10
2023-03-26T18:04:03.050Z,16.40
2023-03-26T18:06:44.347Z,16.80
2023-03-26T18:09:29.822Z,16.65
2023-03-26T18:12:09.368Z,16.65
2023-03-26T18:14:55.708Z,16.33
2023-03-26T18:17:24.672Z,16.67
2023-03-26T18:20:06.107Z,17.15
2023-03-26T18:22:34.059Z,16.95
2023-03-26T18:25:03.281Z,17.00
2023-03-26T18:27:37.214Z,16.90
2023-03-26T18:30:16.859Z,17.17
2023-03-26T18:33:02.021Z,17.00
2023-03-26T18:35:46.301Z,16.83
2023-03-26T18:38:35.846Z,17.15
2023-03-26T18:41:08.177Z,16.70
2023-03-26T18:43:44.528Z,17.13
2023-03-26T18:46:14.680Z,17.23
2023-03-26T18:48:42.375Z,17.30
2023-03-26T18:51:10.055Z,17.77
2023-03-26T18:53:49.268Z,17.27
2023-03-26T18:56:35.704Z,17.52
2023-03-26T18:59:06.839Z,17.48
2023-03-26T19:01:37.433Z,16.67
2023-03-26T19:04:07.815Z,16.85
2023-03-26T19:06:38.571Z,17.08
2023-03-26T19:09:19.679Z,16.77
2023-03-26T19:11:57.261Z,17.15
2023-03-26T19:14:26.218Z,16.95
2023-03-26T19:16:59.519Z,17.25
2023-03-26T19:19:32.104Z,17.27
2023-03-26T19:22:00.238Z,17.27
2023-03-26T19:24:27.730Z,17.48
2023-03-26T19:26:55.175Z,17.70
2023-03-26T19:29:33.910Z,18.55
2023-03-26T19:32:17.626Z,18.45
2023-03-26T19:34:47.015Z,18.60
2023-03-26T19:37:18.450Z,17.90
2023-03-26T19:39:51.306Z,18.38
2023-03-26T19:42:43.048Z,18.27
2023-03-26T19:45:20.437Z,18.73
2023-03-26T19:47:57.315Z,18.42
2023-03-26T19:50:30.313Z,18.20
2023-03-26T19:53:17.809Z,18.13
2023-03-26T19:56:09.930Z,18.20
2023-03-26T19:58:37.097Z,18.15
2023-03-26T20:01:05.034Z,18.70
2023-03-26T20:03:43.449Z,18.48
2023-03-26T20:06:15.882Z,18.13
2023-03-26T20:08:43.193Z,18.40
2023-03-26T20:11:16.646Z,17.85
2023-03-26T20:13:43.776Z,18.45
2023-03-26T20:16:27.189Z,17.83
2023-03-26T20:18:57.337Z,18.30
2023-03-26T20:21:25.613Z,18.73
2023-03-26T20:23:55.692Z,18.60
2023-03-26T20:26:24.169Z,17.85
2023-03-26T20:28:53.370Z,17.75
2023-03-26T20:31:25.209Z,17.75
2023-03-26T20:33:54.145Z,17.77
2023-03-26T20:36:34.008Z,17.45
2023-03-26T20:39:06.194Z,17.70
2023-03-26T20:41:34.545Z,17.73
2023-03-26T20:44:03.799Z,17.60
2023-03-26T20:46:31.758Z,17.17
2023-03-26T20:49:00.051Z,17.58
2023-03-26T20:51:28.863Z,17.58
2023-03-26T20:53:56.525Z,17.05
2023-03-26T20:56:23.868Z,17.30
2023-03-26T20:59:03.698Z,16.70
2023-03-26T21:01:38.249Z,17.20
2023-03-26T21:04:06.010Z,16.50
2023-03-26T21:06:33.202Z,17.08
2023-03-26T21:09:00.538Z,16.88
2023-03-26T21:11:39.884Z,17.30
2023-03-26T21:14:21.266Z,17.42
2023-03-26T21:16:48.701Z,17.17
2023-03-26T21:19:16.094Z,17.27
2023-03-26T21:21:52.700Z,17.40
2023-03-26T21:24:24.875Z,17.27
2023-03-26T21:27:04.087Z,17.27
2023-03-26T21:29:32.218Z,17.50
2023-03-26T21:32:00.388Z,17.20
2023-03-26T21:34:27.771Z,17.77
2023-03-26T21:36:55.743Z,17.20
2023-03-26T21:39:23.329Z,17.52
2023-03-26T21:42:04.761Z,17.60
2023-03-26T21:44:33.213Z,17.15
2023-03-26T21:47:00.467Z,17.10
2023-03-26T21:49:27.866Z,17.25
2023-03-26T21:51:55.161Z,16.95
2023-03-26T21:54:27.122Z,17.08
2023-03-26T21:57:21.999Z,16.85
2023-03-26T21:59:54.630Z,16.60
2023-03-26T22:02:27.070Z,16.33
2023-03-26T22:05:02.410Z,16.85
2023-03-26T22:08:02.147Z,16.92
2023-03-26T22:10:30.285Z,16.88
2023-03-26T22:12:58.103Z,16.45
2023-03-26T22:15:26.920Z,16.40
2023-03-26T22:17:55.847Z,16.67
2023-03-26T22:20:28.110Z,17.00
2023-03-26T22:22:55.907Z,17.00
2023-03-26T22:25:24.148Z,17.00
2023-03-26T22:27:51.718Z,16.48
2023-03-26T22:30:20.906Z,17.23
2023-03-26T22:32:48.544Z,16.88
2023-03-26T22:35:15.800Z,16.52
2023-03-26T22:37:43.142Z,17.00
2023-03-26T22:40:13.049Z,16.73
2023-03-26T22:42:41.051Z,16.42
2023-03-26T22:45:09.442Z,16.10
2023-03-26T22:47:36.704Z,16.48
2023-03-26T22:50:07.492Z,16.30
2023-03-26T22:52:35.610Z,16.45
2023-03-26T22:55:03.519Z,17.50
2023-03-26T22:57:30.808Z,18.50
2023-03-26T23:00:07.617Z,18.20
2023-03-26T23:02:34.697Z,18.40
2023-03-26T23:05:01.738Z,18.58
2023-03-26T23:07:28.782Z,18.85
2023-03-26T23:09:55.829Z,18.83
2023-03-26T23:12:23.006Z,19.25
2023-03-26T23:14:53.081Z,19.27
2023-03-26T23:17:20.267Z,20.35
2023-03-26T23:19:47.282Z,21.00
2023-03-26T23:22:14.216Z,21.33
2023-03-26T23:24:41.545Z,21.48
2023-03-26T23:27:08.877Z,21.52
2023-03-26T23:29:36.563Z,21.58
2023-03-26T23:32:03.780Z,21.65
2023-03-26T23:34:52.546Z,20.95
2023-03-26T23:37:23.476Z,20.95
2023-03-26T23:39:51.668Z,20.33
2023-03-26T23:42:28.736Z,20.33
2023-03-26T23:44:57.100Z,20.05
2023-03-26T23:47:24.539Z,20.80
2023-03-26T23:49:51.621Z,20.58
2023-03-26T23:52:18.929Z,21.33
2023-03-26T23:54:45.963Z,22.17
2023-03-26T23:57:13.952Z,21.77
2023-03-26T23:59:41.632Z,21.90
